Time;durP1;ratioP1;P1;durP2;ratioP2;P2;SDS_P1;SDS_P2;PMS_P1;PMS_P2;Temp;Humidity;BMP_temperature;BMP_pressure;BME280_temperature;BME280_humidity;BME280_pressure;Samples;Min_cycle;Max_cycle;Signal;HPM_P1;HPM_P2
2023/09/17 00:02:17;;;;;;;0.60;0.60;;;;;;;19.49;82.29;99864.97;5074210;28;20123;-67
2023/09/17 00:04:46;;;;;;;1.08;0.98;;;;;;;19.53;82.15;99863.97;5072981;28;20311;-67
2023/09/17 00:07:17;;;;;;;0.65;0.65;;;;;;;19.50;82.17;99863.22;5073856;28;20086;-67
2023/09/17 00:09:46;;;;;;;0.95;0.80;;;;;;;19.38;81.97;99861.91;5073853;28;20598;-67
2023/09/17 00:12:15;;;;;;;0.70;0.70;;;;;;;19.32;82.21;99857.75;5074035;28;20044;-67
2023/09/17 00:14:45;;;;;;;0.70;0.70;;;;;;;19.22;82.46;99853.75;5073763;28;20076;-68
2023/09/17 00:17:14;;;;;;;0.82;0.82;;;;;;;19.17;82.65;99854.81;5073710;28;20488;-68
2023/09/17 00:19:43;;;;;;;3.17;0.95;;;;;;;19.12;82.58;99856.72;5073714;28;20044;-67
2023/09/17 00:22:14;;;;;;;0.50;0.50;;;;;;;19.04;82.88;99853.53;5073722;28;20044;-68
2023/09/17 00:24:45;;;;;;;1.10;1.00;;;;;;;18.98;83.13;99853.72;5073690;28;20052;-67
2023/09/17 00:27:15;;;;;;;4.03;1.65;;;;;;;18.99;83.30;99855.41;5073605;28;20051;-67
2023/09/17 00:29:43;;;;;;;;;;;;;;;19.05;83.65;99850.06;5072770;28;20052;-67
2023/09/17 00:32:12;;;;;;;2.60;0.90;;;;;;;19.06;83.22;99854.31;5073835;28;20015;-68
2023/09/17 00:34:41;;;;;;;1.03;0.80;;;;;;;19.05;83.28;99855.22;5072335;28;20040;-67
2023/09/17 00:37:10;;;;;;;0.57;0.57;;;;;;;19.02;83.11;99855.31;5073402;28;20347;-68
2023/09/17 00:39:44;;;;;;;0.70;0.70;;;;;;;18.89;83.16;99856.59;5073527;28;20064;-68
2023/09/17 00:42:13;;;;;;;1.77;1.45;;;;;;;18.78;83.20;99853.50;5072608;28;20037;-68
2023/09/17 00:44:42;;;;;;;8.05;1.13;;;;;;;18.86;83.58;99854.13;5073335;28;20129;-68
2023/09/17 00:47:12;;;;;;;1.70;0.95;;;;;;;18.76;83.49;99848.38;5105934;28;20045;-67
2023/09/17 00:49:41;;;;;;;0.88;0.88;;;;;;;18.71;83.45;99845.91;5072491;28;20044;-68
2023/09/17 00:52:17;;;;;;;0.40;0.40;;;;;;;18.73;83.61;99844.16;5073943;28;20086;-67
2023/09/17 00:54:50;;;;;;;1.10;0.77;;;;;;;18.73;83.55;99838.13;5073336;28;20056;-68
2023/09/17 00:57:21;;;;;;;1.85;1.48;;;;;;;18.62;83.61;99846.22;5105939;28;20062;-68
2023/09/17 00:59:50;;;;;;;0.52;0.50;;;;;;;18.65;83.77;99835.78;5073297;28;20064;-66
2023/09/17 01:02:22;;;;;;;1.50;1.40;;;;;;;18.68;83.73;99830.53;5073237;28;20128;-67
2023/09/17 01:04:53;;;;;;;1.30;1.20;;;;;;;18.60;83.54;99827.31;5072012;28;20049;-68
2023/09/17 01:07:23;;;;;;;0.60;0.60;;;;;;;18.55;83.42;99828.34;5073529;28;20443;-68
2023/09/17 01:09:53;;;;;;;2.38;1.02;;;;;;;18.45;83.61;99827.75;5072010;28;20098;-67
2023/09/17 01:12:24;;;;;;;0.65;0.65;;;;;;;18.41;83.74;99825.31;5073188;28;20049;-67
2023/09/17 01:14:54;;;;;;;0.50;0.50;;;;;;;18.34;83.80;99824.66;5073113;28;20520;-68
2023/09/17 01:17:27;;;;;;;0.85;0.85;;;;;;;18.34;83.76;99819.47;5076567;28;20075;-67
2023/09/17 01:19:56;;;;;;;1.20;0.65;;;;;;;18.36;83.85;99817.69;5077372;28;20492;-67
2023/09/17 01:22:30;;;;;;;0.73;0.73;;;;;;;18.37;83.95;99821.97;5076996;28;20563;-67
2023/09/17 01:25:07;;;;;;;1.23;1.13;;;;;;;18.43;83.76;99816.59;5076890;28;20056;-67
2023/09/17 01:27:39;;;;;;;0.65;0.60;;;;;;;18.45;83.57;99821.75;5076911;28;20059;-67
2023/09/17 01:30:15;;;;;;;1.08;0.90;;;;;;;18.37;83.29;99819.41;5076939;28;20041;-67
2023/09/17 01:32:45;;;;;;;1.05;1.00;;;;;;;18.37;83.47;99814.22;5109561;28;20053;-67
2023/09/17 01:35:17;;;;;;;1.45;1.35;;;;;;;18.33;83.44;99815.19;5077132;28;20071;-67
2023/09/17 01:37:51;;;;;;;1.67;1.58;;;;;;;18.33;83.35;99810.03;5075176;28;20454;-67
2023/09/17 01:40:21;;;;;;;1.45;0.85;;;;;;;18.34;83.08;99806.56;5076713;28;20052;-67
2023/09/17 01:42:53;;;;;;;1.02;0.85;;;;;;;18.37;82.97;99806.47;5076611;28;20091;-67
2023/09/17 01:45:23;;;;;;;1.52;0.90;;;;;;;18.30;82.89;99802.38;5109594;28;20099;-68
2023/09/17 01:47:52;;;;;;;0.93;0.93;;;;;;;18.27;82.99;99802.47;5076376;28;20075;-67
2023/09/17 01:50:25;;;;;;;0.77;0.77;;;;;;;18.20;82.81;99800.97;5076482;28;20048;-67
2023/09/17 01:52:56;;;;;;;0.85;0.85;;;;;;;18.08;82.83;99796.16;5076740;28;20496;-67
2023/09/17 01:55:26;;;;;;;0.50;0.50;;;;;;;18.09;83.21;99803.03;5109497;28;20045;-67
2023/09/17 01:57:56;;;;;;;0.68;0.68;;;;;;;18.10;83.04;99804.69;5108912;28;20048;-67
2023/09/17 02:00:26;;;;;;;0.75;0.70;;;;;;;17.96;83.05;99806.84;5075143;28;20072;-67
2023/09/17 02:02:56;;;;;;;1.70;1.58;;;;;;;18.01;83.28;99799.81;5076574;28;20041;-67
2023/09/17 02:05:25;;;;;;;;;;;;;;;17.92;83.17;99805.25;5076890;28;20511;-67
2023/09/17 02:07:55;;;;;;;0.90;0.77;;;;;;;17.87;83.39;99807.09;5076058;28;19920;-67
2023/09/17 02:10:24;;;;;;;0.93;0.93;;;;;;;17.91;83.60;99811.28;5076085;28;20049;-67
2023/09/17 02:12:53;;;;;;;0.80;0.80;;;;;;;17.86;83.28;99801.09;5076110;28;20516;-68
2023/09/17 02:15:23;;;;;;;1.23;0.90;;;;;;;17.82;83.40;99809.81;5076300;28;20048;-67
2023/09/17 02:17:53;;;;;;;1.00;0.70;;;;;;;17.84;83.62;99797.72;5108503;28;20098;-67
2023/09/17 02:20:21;;;;;;;;;;;;;;;17.89;83.36;99805.31;5076318;28;20059;-67
2023/09/17 02:22:50;;;;;;;0.60;0.60;;;;;;;17.88;83.32;99803.63;5076149;28;20335;-67
2023/09/17 02:25:19;;;;;;;1.40;1.27;;;;;;;17.83;83.15;99805.47;5074952;28;20045;-68
2023/09/17 02:27:48;;;;;;;0.93;0.88;;;;;;;17.77;83.35;99806.53;5073532;28;20098;-67
2023/09/17 02:30:17;;;;;;;1.13;0.98;;;;;;;17.74;83.30;99810.91;5075662;28;20047;-67
2023/09/17 02:32:48;;;;;;;1.30;0.80;;;;;;;17.80;83.21;99806.41;5108260;28;20044;-67
2023/09/17 02:35:17;;;;;;;0.60;0.60;;;;;;;17.83;82.84;99800.31;5074587;28;20488;-67
2023/09/17 02:37:45;;;;;;;0.75;0.75;;;;;;;17.76;82.97;99803.97;5075255;28;20049;-67
2023/09/17 02:40:16;;;;;;;1.13;1.05;;;;;;;17.73;82.94;99806.66;5075972;28;20053;-67
2023/09/17 02:42:45;;;;;;;;;;;;;;;17.72;83.13;99799.78;5076202;28;20045;-67
2023/09/17 02:45:14;;;;;;;0.80;0.80;;;;;;;17.72;82.88;99808.38;5074306;28;19920;-67
2023/09/17 02:47:43;;;;;;;1.45;1.17;;;;;;;17.63;83.20;99807.78;5075773;28;20028;-67
2023/09/17 02:50:14;;;;;;;1.30;1.20;;;;;;;17.65;83.02;99811.16;5075355;28;20074;-67
2023/09/17 02:52:43;;;;;;;1.85;1.38;;;;;;;17.65;83.13;99806.00;5075426;28;20063;-67
2023/09/17 02:55:12;;;;;;;0.60;0.60;;;;;;;17.65;83.28;99808.59;5075534;28;20043;-68
2023/09/17 02:57:42;;;;;;;0.60;0.60;;;;;;;17.65;83.28;99811.16;5075305;28;20047;-67
2023/09/17 03:00:13;;;;;;;1.03;0.93;;;;;;;17.67;83.19;99809.38;5073892;28;20128;-67
2023/09/17 03:02:43;;;;;;;0.60;0.60;;;;;;;17.66;83.09;99812.88;5107782;28;20265;-67
2023/09/17 03:05:14;;;;;;;0.50;0.50;;;;;;;17.63;83.26;99812.94;5075365;28;20047;-68
2023/09/17 03:07:43;;;;;;;1.38;1.05;;;;;;;17.59;83.26;99808.75;5107734;28;20055;-67
2023/09/17 03:10:12;;;;;;;0.40;0.40;;;;;;;17.58;83.41;99804.47;5074093;28;20500;-67
2023/09/17 03:12:45;;;;;;;0.70;0.70;;;;;;;17.57;83.50;99806.22;5074054;28;20114;-67
2023/09/17 03:15:15;;;;;;;0.95;0.90;;;;;;;17.56;83.41;99806.25;5075208;28;20094;-67
2023/09/17 03:17:44;;;;;;;1.30;0.80;;;;;;;17.54;83.51;99800.31;5074746;28;20041;-67
2023/09/17 03:20:18;;;;;;;1.40;1.30;;;;;;;17.52;83.75;99802.03;5074680;28;20049;-67
2023/09/17 03:22:49;;;;;;;0.75;0.70;;;;;;;17.49;83.64;99797.81;5074785;28;20052;-68
2023/09/17 03:25:19;;;;;;;0.68;0.68;;;;;;;17.51;83.67;99798.59;5075242;28;20053;-67
2023/09/17 03:27:50;;;;;;;1.48;0.90;;;;;;;17.51;83.82;99797.75;5074584;28;20044;-67
2023/09/17 03:30:19;;;;;;;1.13;0.90;;;;;;;17.48;83.86;99798.69;5107430;28;20033;-67
2023/09/17 03:32:48;;;;;;;0.80;0.80;;;;;;;17.44;83.97;99795.31;5073383;28;20101;-67
2023/09/17 03:35:39;;;;;;;1.35;1.25;;;;;;;17.45;84.11;99798.75;5073243;28;20049;-68
2023/09/17 03:38:09;;;;;;;1.10;0.70;;;;;;;17.47;84.04;99796.16;5074154;28;20052;-68
2023/09/17 03:40:39;;;;;;;1.03;0.93;;;;;;;17.44;83.92;99792.75;5072868;28;20125;-67
2023/09/17 03:43:10;;;;;;;0.80;0.73;;;;;;;17.37;84.03;99788.63;5074585;28;20492;-67
2023/09/17 03:45:41;;;;;;;0.98;0.93;;;;;;;17.35;84.20;99790.41;5074208;28;20519;-67
2023/09/17 03:48:10;;;;;;;1.20;1.10;;;;;;;17.36;84.03;99789.53;5106886;28;20095;-67
2023/09/17 03:50:42;;;;;;;1.23;1.08;;;;;;;17.38;83.92;99798.09;5072874;28;20040;-67
2023/09/17 03:53:12;;;;;;;0.77;0.77;;;;;;;17.39;83.95;99799.78;5074136;28;20044;-68
2023/09/17 03:55:41;;;;;;;1.45;1.15;;;;;;;17.34;84.00;99796.47;5074006;28;20045;-68
2023/09/17 03:58:10;;;;;;;0.70;0.70;;;;;;;17.30;84.03;99794.84;5074011;28;20071;-67
2023/09/17 04:00:43;;;;;;;0.70;0.70;;;;;;;17.30;84.13;99796.56;5074147;28;20378;-68
2023/09/17 04:03:17;;;;;;;0.50;0.50;;;;;;;17.28;84.14;99794.03;5107034;28;20041;-68
2023/09/17 04:05:50;;;;;;;0.70;0.70;;;;;;;17.30;84.11;99794.84;5074037;28;20041;-68
2023/09/17 04:08:19;;;;;;;0.60;0.60;;;;;;;17.30;84.00;99794.84;5074194;28;20056;-68
2023/09/17 04:10:54;;;;;;;1.05;0.85;;;;;;;17.26;84.08;99800.97;5074115;28;20048;-68
2023/09/17 04:13:23;;;;;;;1.35;1.02;;;;;;;17.31;83.81;99793.97;5074103;28;20377;-68
2023/09/17 04:15:53;;;;;;;0.70;0.70;;;;;;;17.32;84.09;99803.38;5072707;28;20040;-68
2023/09/17 04:18:22;;;;;;;1.17;1.08;;;;;;;17.34;83.98;99805.94;5073678;28;20506;-68
2023/09/17 04:20:53;;;;;;;1.15;1.02;;;;;;;17.35;84.01;99800.72;5073943;28;20482;-68
2023/09/17 04:23:24;;;;;;;2.47;1.33;;;;;;;17.34;83.97;99801.63;5073621;28;20047;-67
2023/09/17 04:25:54;;;;;;;1.98;1.65;;;;;;;17.33;83.83;99805.09;5073710;28;20110;-68
2023/09/17 04:28:24;;;;;;;0.85;0.70;;;;;;;17.31;84.05;99812.03;5106345;28;20123;-67
2023/09/17 04:30:54;;;;;;;0.88;0.80;;;;;;;17.32;84.02;99813.72;5073639;28;20044;-67
2023/09/17 04:33:23;;;;;;;1.13;1.00;;;;;;;17.34;84.06;99805.94;5073480;28;20140;-67
2023/09/17 04:35:58;;;;;;;1.13;1.02;;;;;;;17.35;83.96;99810.19;5073837;28;20123;-67
2023/09/17 04:38:29;;;;;;;1.02;0.82;;;;;;;17.40;83.93;99816.09;5073327;28;20097;-67
2023/09/17 04:40:58;;;;;;;0.77;0.77;;;;;;;17.33;84.00;99815.41;5072279;28;20036;-67
2023/09/17 04:43:28;;;;;;;2.20;2.00;;;;;;;17.31;83.79;99822.34;5073363;28;20045;-67
2023/09/17 04:45:59;;;;;;;;;;;;;;;17.28;83.88;99819.84;5073828;28;20044;-67
2023/09/17 04:48:32;;;;;;;1.42;0.80;;;;;;;17.22;84.04;99822.59;5073715;28;19982;-67
2023/09/17 04:51:03;;;;;;;1.27;1.02;;;;;;;17.24;84.10;99836.28;5072784;28;20094;-67
2023/09/17 04:53:32;;;;;;;0.65;0.65;;;;;;;17.24;84.15;99836.28;5106017;28;20049;-67
2023/09/17 04:56:01;;;;;;;0.47;0.47;;;;;;;17.24;84.28;99830.28;5106025;28;20045;-67
2023/09/17 04:58:35;;;;;;;1.48;1.27;;;;;;;17.24;84.35;99825.97;5073990;28;20121;-68
2023/09/17 05:01:07;;;;;;;1.42;1.13;;;;;;;17.28;84.39;99829.31;5073222;28;20041;-68
2023/09/17 05:03:37;;;;;;;0.80;0.80;;;;;;;17.30;84.37;99828.38;5072328;28;20044;-67
2023/09/17 05:06:07;;;;;;;1.75;1.15;;;;;;;17.34;84.21;99832.59;5073252;28;20056;-67
2023/09/17 05:08:36;;;;;;;1.83;1.38;;;;;;;17.31;84.33;99824.94;5105869;28;20071;-67
2023/09/17 05:11:06;;;;;;;0.50;0.50;;;;;;;17.30;84.34;99830.97;5073215;28;20515;-67
2023/09/17 05:13:35;;;;;;;0.68;0.68;;;;;;;17.25;84.49;99832.81;5105747;28;20040;-67
2023/09/17 05:16:04;;;;;;;1.27;1.17;;;;;;;17.23;84.49;99839.75;5105708;28;20098;-68
2023/09/17 05:18:33;;;;;;;1.17;1.10;;;;;;;17.26;84.54;99829.38;5072213;28;20061;-68
2023/09/17 05:21:02;;;;;;;0.98;0.77;;;;;;;17.25;84.45;99840.56;5072968;28;20051;-68
2023/09/17 05:23:32;;;;;;;1.27;1.17;;;;;;;17.25;84.53;99843.13;5072961;28;20119;-68
2023/09/17 05:26:03;;;;;;;2.75;1.60;;;;;;;17.25;84.60;99850.88;5105590;28;20048;-68
2023/09/17 05:28:32;;;;;;;2.03;1.67;;;;;;;17.28;84.65;99852.53;5073279;28;20046;-68
2023/09/17 05:31:03;;;;;;;;;;;;;;;17.35;84.59;99859.22;5073427;28;20079;-68
2023/09/17 05:33:33;;;;;;;0.68;0.68;;;;;;;17.42;84.71;99860.75;5106154;28;20261;-68
2023/09/17 05:36:04;;;;;;;0.82;0.82;;;;;;;17.53;84.61;99858.81;5072873;28;20052;-68
2023/09/17 05:38:34;;;;;;;0.70;0.70;;;;;;;17.63;84.60;99864.56;5072814;28;20136;-68
2023/09/17 05:41:04;;;;;;;1.48;1.33;;;;;;;17.74;84.65;99858.22;5073137;28;20048;-68
2023/09/17 05:43:38;;;;;;;0.70;0.70;;;;;;;17.80;84.49;99863.22;5105576;28;20045;-67
2023/09/17 05:46:07;;;;;;;0.80;0.80;;;;;;;17.88;84.33;99865.59;5106013;28;20091;-67
2023/09/17 05:48:41;;;;;;;1.38;1.27;;;;;;;18.00;84.29;99870.44;5072888;28;20056;-67
2023/09/17 05:51:10;;;;;;;1.27;1.17;;;;;;;18.11;84.29;99867.56;5071326;28;20044;-67
2023/09/17 05:53:41;;;;;;;0.45;0.45;;;;;;;18.22;84.26;99874.09;5072717;28;20048;-68
2023/09/17 05:56:11;;;;;;;3.67;1.88;;;;;;;18.34;84.23;99870.31;5072294;28;20053;-68
2023/09/17 05:58:40;;;;;;;0.80;0.70;;;;;;;18.45;84.11;99869.09;5072575;28;20084;-68
2023/09/17 06:01:10;;;;;;;0.65;0.65;;;;;;;18.57;83.85;99870.53;5072594;28;20139;-67
2023/09/17 06:03:39;;;;;;;1.55;1.02;;;;;;;18.71;83.89;99874.38;5074641;28;20182;-68
2023/09/17 06:06:08;;;;;;;1.52;1.42;;;;;;;18.82;83.61;99878.38;5108778;28;20048;-67
2023/09/17 06:08:37;;;;;;;0.60;0.60;;;;;;;18.95;83.39;99874.53;5076429;28;20040;-67
2023/09/17 06:11:08;;;;;;;2.90;0.83;;;;;;;19.05;83.36;99886.28;5076117;28;20368;-66
2023/09/17 06:13:36;;;;;;;0.80;0.80;;;;;;;19.16;83.28;99884.19;5076068;28;20075;-66
2023/09/17 06:16:06;;;;;;;0.93;0.88;;;;;;;19.28;83.10;99888.97;5076030;28;20132;-67
2023/09/17 06:18:36;;;;;;;0.70;0.70;;;;;;;19.38;83.03;99877.44;5108923;28;20492;-66
2023/09/17 06:21:04;;;;;;;2.33;1.23;;;;;;;19.52;82.76;99893.34;5075972;28;20055;-65
2023/09/17 06:23:33;;;;;;;1.58;1.02;;;;;;;19.64;82.51;99890.34;5075936;28;20859;-65
2023/09/17 06:26:02;;;;;;;2.53;1.37;;;;;;;19.72;82.27;99890.94;5076171;28;20040;-65
2023/09/17 06:28:33;;;;;;;2.47;1.10;;;;;;;19.84;82.00;99897.44;5108648;28;20124;-65
2023/09/17 06:31:03;;;;;;;1.10;1.00;;;;;;;19.92;81.53;99893.66;5075730;28;20106;-66
2023/09/17 06:33:34;;;;;;;1.48;1.35;;;;;;;20.04;81.31;99897.56;5108687;28;20041;-65
2023/09/17 06:36:03;;;;;;;0.90;0.88;;;;;;;20.15;80.81;99899.78;5108304;28;20068;-66
2023/09/17 06:38:32;;;;;;;;;;;;;;;20.26;80.46;99902.84;5075824;28;20125;-67
2023/09/17 06:41:01;;;;;;;1.30;1.20;;;;;;;20.35;80.24;99902.50;5108252;28;19920;-66
2023/09/17 06:43:30;;;;;;;0.88;0.82;;;;;;;20.43;79.77;99906.53;5075846;28;20044;-67
2023/09/17 06:46:01;;;;;;;1.55;1.05;;;;;;;20.50;79.32;99896.75;5075458;28;20496;-66
2023/09/17 06:48:29;;;;;;;1.42;1.10;;;;;;;20.61;78.94;99902.41;5075407;28;20087;-65
2023/09/17 06:50:58;;;;;;;0.73;0.73;;;;;;;20.76;78.62;99899.19;5075652;28;20041;-65
2023/09/17 06:53:27;;;;;;;1.55;1.25;;;;;;;20.93;78.49;99902.00;5075328;28;20094;-66
2023/09/17 06:55:58;;;;;;;2.92;1.70;;;;;;;21.09;77.63;99907.47;5075295;28;20040;-65
2023/09/17 06:58:27;;;;;;;0.80;0.80;;;;;;;21.23;76.96;99906.00;5075260;28;20123;-65
2023/09/17 07:00:56;;;;;;;1.02;0.68;;;;;;;21.35;76.78;99899.47;5075065;28;20045;-65
2023/09/17 07:03:27;;;;;;;0.70;0.70;;;;;;;21.49;76.50;99901.47;5075723;28;20377;-65
2023/09/17 07:05:56;;;;;;;0.65;0.65;;;;;;;21.61;76.15;99906.16;5075385;28;20127;-66
2023/09/17 07:08:24;;;;;;;0.77;0.77;;;;;;;21.67;75.87;99900.69;5075096;28;20068;-67
2023/09/17 07:10:53;;;;;;;0.90;0.90;;;;;;;21.77;75.57;99896.81;5074457;28;20044;-67
2023/09/17 07:13:22;;;;;;;1.35;1.25;;;;;;;21.87;75.09;99908.53;5074791;28;20045;-66
2023/09/17 07:15:51;;;;;;;0.68;0.68;;;;;;;21.94;74.62;99909.97;5074609;28;20052;-65
2023/09/17 07:18:20;;;;;;;0.83;0.80;;;;;;;21.99;73.92;99914.06;5075147;28;20047;-66
2023/09/17 07:20:50;;;;;;;0.65;0.65;;;;;;;22.02;73.64;99905.28;5074642;28;20808;-66
2023/09/17 07:23:19;;;;;;;0.50;0.50;;;;;;;22.09;73.63;99904.09;5074758;28;20052;-67
2023/09/17 07:25:50;;;;;;;1.45;0.73;;;;;;;22.26;73.29;99905.94;5074610;28;20067;-66
2023/09/17 07:28:20;;;;;;;0.65;0.65;;;;;;;22.31;72.83;99902.25;5074698;28;20127;-67
2023/09/17 07:30:55;;;;;;;1.30;0.63;;;;;;;22.41;72.31;99900.88;5074612;28;20058;-66
2023/09/17 07:33:25;;;;;;;0.60;0.60;;;;;;;22.49;71.44;99903.13;5074505;28;20559;-67
2023/09/17 07:35:55;;;;;;;0.60;0.60;;;;;;;22.55;71.29;99901.13;5074455;28;20042;-66
2023/09/17 07:38:24;;;;;;;0.70;0.70;;;;;;;22.59;70.75;99914.81;5074215;28;20581;-67
2023/09/17 07:40:53;;;;;;;0.95;0.77;;;;;;;22.56;69.89;99910.59;5074241;28;20047;-66
2023/09/17 07:43:22;;;;;;;0.50;0.50;;;;;;;22.55;69.10;99908.94;5073282;28;20392;-66
2023/09/17 07:45:50;;;;;;;1.92;0.85;;;;;;;22.55;69.12;99908.94;5074340;28;20043;-69
2023/09/17 07:48:20;;;;;;;0.50;0.50;;;;;;;22.58;68.59;99900.97;5074402;28;20041;-66
2023/09/17 07:50:57;;;;;;;0.77;0.65;;;;;;;22.60;68.24;99898.31;5074128;28;20040;-67
2023/09/17 07:53:27;;;;;;;0.60;0.60;;;;;;;22.63;68.25;99896.41;5074232;28;20047;-66
2023/09/17 07:55:56;;;;;;;0.50;0.50;;;;;;;22.78;68.07;99894.88;5074336;28;20047;-68
2023/09/17 07:58:25;;;;;;;0.50;0.50;;;;;;;22.99;67.37;99893.00;5074096;28;20044;-67
2023/09/17 08:00:54;;;;;;;0.60;0.60;;;;;;;23.15;66.79;99888.75;5074104;28;20040;-66
2023/09/17 08:03:22;;;;;;;;;;;;;;;23.39;66.25;99898.00;5074384;28;20074;-68
2023/09/17 08:05:52;;;;;;;1.23;1.10;;;;;;;23.46;65.84;99894.16;5073988;28;19924;-67
2023/09/17 08:08:22;;;;;;;;;;;;;;;23.48;65.70;99892.31;5074590;28;20037;-68
2023/09/17 08:10:51;;;;;;;0.75;0.70;;;;;;;23.38;65.32;99896.31;5073849;28;19920;-68
2023/09/17 08:13:20;;;;;;;0.55;0.55;;;;;;;23.37;65.51;99907.63;5074115;28;20433;-67
2023/09/17 08:15:50;;;;;;;0.75;0.65;;;;;;;23.38;65.32;99906.72;5074331;28;20052;-66
2023/09/17 08:18:19;;;;;;;0.73;0.73;;;;;;;23.37;65.40;99902.41;5073744;28;20044;-66
2023/09/17 08:20:48;;;;;;;0.70;0.70;;;;;;;23.39;65.15;99902.38;5073717;28;20100;-66
2023/09/17 08:23:18;;;;;;;0.45;0.45;;;;;;;23.35;65.14;99901.66;5073692;28;20484;-67
2023/09/17 08:26:10;;;;;;;1.35;1.25;;;;;;;23.32;65.50;99902.63;5072721;28;20408;-66
2023/09/17 08:29:00;;;;;;;1.00;0.63;;;;;;;23.32;65.27;99917.44;5073555;28;20439;-67
2023/09/17 08:31:49;;;;;;;0.98;0.82;;;;;;;23.26;65.05;99912.50;5073320;28;20399;-66
2023/09/17 08:34:38;;;;;;;0.45;0.45;;;;;;;23.23;65.02;99910.03;5073503;28;20052;-67
2023/09/17 08:37:06;;;;;;;0.90;0.80;;;;;;;23.22;65.28;99908.38;5073391;28;20135;-66
2023/09/17 08:39:35;;;;;;;0.90;0.85;;;;;;;23.24;65.50;99909.13;5073443;28;20045;-66
2023/09/17 08:42:06;;;;;;;;;;;;;;;23.36;65.28;99908.56;5073721;28;20037;-66
2023/09/17 08:44:39;;;;;;;0.55;0.55;;;;;;;23.64;64.61;99913.22;5073714;28;20019;-65
2023/09/17 08:47:07;;;;;;;0.68;0.68;;;;;;;23.87;63.76;99905.91;5073752;28;20044;-68
2023/09/17 08:49:36;;;;;;;0.80;0.80;;;;;;;24.15;63.40;99902.78;5073574;28;20388;-66
2023/09/17 08:52:08;;;;;;;0.70;0.70;;;;;;;24.35;63.00;99901.72;5073344;28;20135;-66
2023/09/17 08:54:41;;;;;;;0.68;0.68;;;;;;;24.26;62.07;99907.44;5073639;28;20072;-69
2023/09/17 08:57:15;;;;;;;2.30;1.17;;;;;;;24.29;61.72;99909.88;5073039;28;20075;-66
2023/09/17 08:59:47;;;;;;;0.57;0.57;;;;;;;24.38;61.37;99906.75;5073658;28;20161;-66
2023/09/17 09:02:21;;;;;;;0.70;0.70;;;;;;;24.63;61.25;99907.13;5073069;28;20127;-66
2023/09/17 09:04:51;;;;;;;0.47;0.47;;;;;;;24.85;60.89;99902.44;5073619;28;20466;-66
2023/09/17 09:07:23;;;;;;;0.40;0.40;;;;;;;24.79;60.43;99901.94;5073543;28;20484;-65
2023/09/17 09:09:53;;;;;;;1.73;1.10;;;;;;;24.70;60.82;99908.47;5073298;28;20136;-65
2023/09/17 09:12:23;;;;;;;0.30;0.30;;;;;;;24.62;60.95;99905.44;5073194;28;20557;-66
2023/09/17 09:14:54;;;;;;;0.40;0.40;;;;;;;24.61;61.05;99914.22;5073127;28;20047;-67
2023/09/17 09:17:23;;;;;;;0.55;0.55;;;;;;;24.73;60.87;99907.47;5073059;28;20044;-66
2023/09/17 09:19:52;;;;;;;0.70;0.70;;;;;;;24.86;60.14;99908.53;5073220;28;20037;-66
2023/09/17 09:22:21;;;;;;;0.75;0.75;;;;;;;24.97;59.82;99906.16;5072917;28;20037;-67
2023/09/17 09:24:50;;;;;;;2.80;1.30;;;;;;;25.14;59.40;99899.06;5072937;28;20040;-65
2023/09/17 09:27:19;;;;;;;2.08;0.80;;;;;;;25.27;58.71;99897.41;5072987;28;20041;-67
2023/09/17 09:29:50;;;;;;;0.50;0.50;;;;;;;25.19;57.89;99898.78;5073010;28;20099;-66
2023/09/17 09:32:19;;;;;;;0.50;0.50;;;;;;;25.24;57.96;99894.97;5072946;28;20054;-68
2023/09/17 09:34:49;;;;;;;0.50;0.50;;;;;;;25.33;58.00;99897.97;5073192;28;20120;-68
2023/09/17 09:37:23;;;;;;;0.98;0.68;;;;;;;25.44;57.40;99901.69;5074028;28;20128;-67
2023/09/17 09:39:53;;;;;;;0.57;0.57;;;;;;;25.57;57.23;99907.06;5076702;28;20044;-67
2023/09/17 09:42:23;;;;;;;0.40;0.40;;;;;;;25.76;56.80;99902.41;5076604;28;20043;-67
2023/09/17 09:44:54;;;;;;;0.70;0.65;;;;;;;25.82;56.21;99902.88;5076521;28;20052;-69
2023/09/17 09:47:23;;;;;;;0.60;0.60;;;;;;;25.92;56.29;99892.72;5076656;28;20051;-66
2023/09/17 09:49:52;;;;;;;0.93;0.70;;;;;;;25.96;56.04;99904.69;5076965;28;20052;-66
2023/09/17 09:52:23;;;;;;;0.80;0.80;;;;;;;25.79;55.96;99895.25;5076468;28;20041;-66
2023/09/17 09:54:53;;;;;;;0.50;0.50;;;;;;;25.89;55.58;99893.75;5076411;28;20045;-67
2023/09/17 09:57:24;;;;;;;0.60;0.60;;;;;;;26.03;55.21;99900.78;5076415;28;20076;-68
2023/09/17 09:59:54;;;;;;;0.70;0.63;;;;;;;26.00;54.85;99890.50;5076561;28;20064;-66
2023/09/17 10:02:24;;;;;;;0.52;0.52;;;;;;;25.99;55.15;99893.22;5076255;28;20044;-67
2023/09/17 10:04:53;;;;;;;0.40;0.40;;;;;;;26.00;54.37;99890.50;5076546;28;20454;-66
2023/09/17 10:07:22;;;;;;;1.20;1.00;;;;;;;26.09;54.34;99892.53;5076146;28;20093;-67
2023/09/17 10:09:52;;;;;;;0.40;0.40;;;;;;;26.25;53.27;99884.63;5076179;28;20500;-66
2023/09/17 10:12:22;;;;;;;0.90;0.80;;;;;;;26.52;53.70;99880.28;5076087;28;20073;-65
2023/09/17 10:14:52;;;;;;;0.40;0.40;;;;;;;26.45;53.29;99877.22;5076136;28;20487;-70
2023/09/17 10:17:23;;;;;;;0.68;0.60;;;;;;;26.54;52.97;99868.78;5075990;28;20040;-68
2023/09/17 10:19:54;;;;;;;0.43;0.43;;;;;;;26.79;52.87;99865.47;5076065;28;20412;-66
2023/09/17 10:22:24;;;;;;;0.50;0.50;;;;;;;26.88;52.53;99877.97;5076232;28;20123;-65
2023/09/17 10:24:55;;;;;;;0.60;0.60;;;;;;;26.70;52.38;99870.44;5076152;28;20044;-67
2023/09/17 10:27:25;;;;;;;0.55;0.55;;;;;;;26.54;51.77;99860.91;5075848;28;20048;-68
2023/09/17 10:29:56;;;;;;;9.93;1.30;;;;;;;26.63;51.68;99865.56;5075712;28;20037;-66
2023/09/17 10:32:28;;;;;;;0.70;0.70;;;;;;;26.40;51.37;99867.97;5075762;28;20041;-66
2023/09/17 10:35:01;;;;;;;0.85;0.85;;;;;;;26.23;51.62;99860.31;5075724;28;20049;-67
2023/09/17 10:37:31;;;;;;;0.50;0.50;;;;;;;26.50;51.80;99859.44;5075355;28;20052;-70
2023/09/17 10:40:02;;;;;;;0.80;0.80;;;;;;;26.65;51.01;99862.03;5075665;28;20041;-66
2023/09/17 10:42:33;;;;;;;0.82;0.77;;;;;;;26.38;51.09;99860.22;5075837;28;20048;-66
2023/09/17 10:45:07;;;;;;;0.63;0.63;;;;;;;26.19;51.46;99854.44;5075823;28;20053;-66
2023/09/17 10:47:41;;;;;;;8.50;1.23;;;;;;;26.33;52.55;99859.66;5075468;28;20051;-71
2023/09/17 10:50:13;;;;;;;0.93;0.90;;;;;;;26.51;51.92;99845.41;5074551;28;20048;-66
2023/09/17 10:52:42;;;;;;;0.80;0.80;;;;;;;26.51;51.72;99849.81;5075399;28;20048;-67
2023/09/17 10:55:11;;;;;;;0.55;0.55;;;;;;;26.20;51.30;99848.25;5075281;28;20040;-68
2023/09/17 10:57:44;;;;;;;1.02;0.93;;;;;;;26.20;51.75;99850.06;5075537;28;20037;-65
2023/09/17 11:00:18;;;;;;;0.40;0.40;;;;;;;26.21;51.25;99852.56;5075458;28;20052;-67
2023/09/17 11:02:55;;;;;;;0.40;0.40;;;;;;;26.63;51.06;99848.19;5075653;28;20040;-68
2023/09/17 11:05:28;;;;;;;0.77;0.57;;;;;;;26.89;50.51;99837.75;5075202;28;20064;-68
2023/09/17 11:08:02;;;;;;;0.35;0.35;;;;;;;27.06;49.80;99831.41;5075025;28;20058;-67
2023/09/17 11:10:31;;;;;;;0.40;0.40;;;;;;;27.06;49.31;99816.53;5075395;28;20048;-68
2023/09/17 11:13:01;;;;;;;0.98;0.88;;;;;;;26.79;49.77;99833.19;5074862;28;20047;-68
2023/09/17 11:15:30;;;;;;;;;;;;;;;26.53;50.40;99845.31;5075251;28;20051;-69
2023/09/17 11:18:01;;;;;;;0.38;0.38;;;;;;;26.43;50.43;99837.19;5074861;28;19971;-67
2023/09/17 11:20:30;;;;;;;0.63;0.63;;;;;;;26.43;50.98;99837.19;5074782;28;20094;-68
2023/09/17 11:22:59;;;;;;;;;;;;;;;26.42;50.90;99835.50;5075095;28;20051;-67
2023/09/17 11:25:36;;;;;;;0.85;0.85;;;;;;;26.66;50.46;99832.28;5074957;28;19920;-70
2023/09/17 11:28:13;;;;;;;0.90;0.82;;;;;;;26.86;50.28;99830.06;5074676;28;20076;-66
2023/09/17 11:31:02;;;;;;;0.68;0.68;;;;;;;26.87;50.17;99836.16;5074908;28;20064;-68
2023/09/17 11:33:33;;;;;;;0.60;0.60;;;;;;;26.73;50.30;99841.44;5074533;28;20119;-66
2023/09/17 11:36:03;;;;;;;0.38;0.38;;;;;;;26.56;50.22;99832.84;5074817;28;20455;-66
2023/09/17 11:38:33;;;;;;;0.50;0.50;;;;;;;26.48;50.73;99834.28;5074252;28;20055;-67
2023/09/17 11:41:07;;;;;;;0.40;0.40;;;;;;;26.38;51.09;99834.03;5074819;28;20408;-66
2023/09/17 11:43:37;;;;;;;0.77;0.60;;;;;;;26.28;50.58;99838.16;5074287;28;20044;-67
2023/09/17 11:46:09;;;;;;;1.05;0.95;;;;;;;26.12;50.88;99836.59;5074234;28;20059;-67
2023/09/17 11:48:41;;;;;;;0.85;0.60;;;;;;;26.10;51.07;99841.91;5074306;28;20041;-68
2023/09/17 11:51:23;;;;;;;0.43;0.43;;;;;;;26.18;51.31;99831.00;5074191;28;20056;-66
2023/09/17 11:53:55;;;;;;;0.68;0.60;;;;;;;26.22;51.66;99828.09;5074311;28;20098;-66